createdAt,value
2022-10-17T00:00:13.192Z,232.68
2022-10-17T00:02:43.870Z,268.58
2022-10-17T00:05:13.042Z,208.70
2022-10-17T00:07:42.623Z,102.28
2022-10-17T00:10:11.966Z,36.58
2022-10-17T00:12:41.278Z,129.38
2022-10-17T00:15:12.538Z,17.40
2022-10-17T00:17:43.172Z,46.47
2022-10-17T00:20:14.416Z,173.88
2022-10-17T00:22:43.903Z,121.25
2022-10-17T00:25:14.141Z,48.70
2022-10-17T00:27:44.158Z,21.23
2022-10-17T00:30:17.269Z,101.13
2022-10-17T00:32:47.996Z,273.17
2022-10-17T00:35:17.445Z,104.68
2022-10-17T00:37:46.721Z,36.63
2022-10-17T00:40:16.003Z,137.90
2022-10-17T00:42:45.290Z,76.38
2022-10-17T00:45:26.763Z,162.25
2022-10-17T00:48:02.462Z,68.82
2022-10-17T00:50:32.632Z,205.50
2022-10-17T00:53:05.448Z,107.07
2022-10-17T00:55:40.832Z,190.60
2022-10-17T00:58:10.566Z,323.88
2022-10-17T01:00:40.041Z,144.50
2022-10-17T01:03:10.786Z,71.93
2022-10-17T01:05:41.172Z,360.52
2022-10-17T01:08:11.454Z,43.78
2022-10-17T01:10:55.017Z,169.65
2022-10-17T01:13:31.491Z,33.85
2022-10-17T01:16:11.238Z,136.18
2022-10-17T01:18:56.236Z,118.32
2022-10-17T01:21:53.048Z,181.27
2022-10-17T01:24:50.346Z,133.48
2022-10-17T01:27:54.973Z,149.13
2022-10-17T01:31:07.746Z,343.33
2022-10-17T01:34:02.029Z,175.90
2022-10-17T01:36:41.793Z,251.18
2022-10-17T01:39:21.924Z,326.88
2022-10-17T01:41:58.533Z,125.38
2022-10-17T01:44:36.478Z,458.45
2022-10-17T01:47:13.137Z,97.60
2022-10-17T01:49:46.573Z,331.58
2022-10-17T01:52:19.999Z,236.45
2022-10-17T01:54:55.213Z,127.38
2022-10-17T01:57:35.425Z,127.20
2022-10-17T02:00:12.665Z,143.18
2022-10-17T02:02:48.233Z,107.65
2022-10-17T02:05:23.058Z,67.20
2022-10-17T02:07:52.297Z,66.50
2022-10-17T02:10:35.431Z,118.32
2022-10-17T02:13:16.388Z,254.55
2022-10-17T02:16:21.971Z,218.10
2022-10-17T02:19:13.830Z,38.70
2022-10-17T02:21:52.504Z,169.70
2022-10-17T02:24:32.261Z,130.63
2022-10-17T02:27:10.142Z,67.60
2022-10-17T02:29:48.401Z,139.70
2022-10-17T02:32:26.210Z,170.57
2022-10-17T02:35:00.653Z,231.85
2022-10-17T02:37:32.516Z,217.80
2022-10-17T02:40:05.029Z,117.30
2022-10-17T02:42:36.767Z,167.35
2022-10-17T02:45:08.700Z,138.50
2022-10-17T02:47:49.720Z,122.03
2022-10-17T02:50:24.099Z,259.10
2022-10-17T02:52:59.044Z,238.30
2022-10-17T02:55:34.062Z,164.82
2022-10-17T02:58:11.960Z,501.02
2022-10-17T03:00:43.199Z,366.20
2022-10-17T03:03:25.617Z,450.08
2022-10-17T03:05:56.900Z,388.60
2022-10-17T03:08:28.489Z,320.83
2022-10-17T03:10:58.688Z,595.88
2022-10-17T03:13:30.391Z,452.30
2022-10-17T03:16:00.063Z,171.63
2022-10-17T03:18:29.558Z,251.60
2022-10-17T03:21:03.812Z,440.63
2022-10-17T03:23:32.946Z,245.15
2022-10-17T03:26:05.706Z,203.35
2022-10-17T03:28:36.456Z,279.33
2022-10-17T03:31:10.019Z,299.52
2022-10-17T03:33:40.413Z,97.00
2022-10-17T03:36:15.064Z,132.55
2022-10-17T03:38:45.419Z,401.80
2022-10-17T03:41:18.508Z,66.68
2022-10-17T03:43:47.913Z,26.35
2022-10-17T03:48:47.467Z,369.85
2022-10-17T03:51:18.498Z,294.90
2022-10-17T03:53:53.132Z,138.27
2022-10-17T03:56:25.118Z,207.18
2022-10-17T03:58:59.970Z,367.75
2022-10-17T04:01:30.974Z,436.48
2022-10-17T04:04:00.306Z,199.82
2022-10-17T04:06:34.858Z,316.27
2022-10-17T04:09:04.711Z,207.85
2022-10-17T04:11:49.844Z,226.23
2022-10-17T04:14:19.250Z,193.10
2022-10-17T04:16:48.618Z,109.60
2022-10-17T04:19:22.315Z,217.57
2022-10-17T04:21:53.824Z,126.47
2022-10-17T04:24:23.646Z,112.07
2022-10-17T04:26:58.980Z,440.88
2022-10-17T04:29:31.322Z,150.00
2022-10-17T04:32:17.303Z,221.07
2022-10-17T04:34:52.757Z,278.63
2022-10-17T04:37:26.016Z,80.47
2022-10-17T04:39:56.827Z,199.07
2022-10-17T04:42:26.388Z,196.20
2022-10-17T04:44:56.581Z,166.68
2022-10-17T04:47:27.998Z,300.02
2022-10-17T04:49:58.197Z,354.40
2022-10-17T04:52:29.081Z,49.15
2022-10-17T04:54:58.616Z,261.60
2022-10-17T04:57:27.893Z,252.35
2022-10-17T05:00:15.953Z,180.68
2022-10-17T05:03:14.227Z,270.58
2022-10-17T05:05:44.301Z,339.33
2022-10-17T05:08:15.444Z,387.63
2022-10-17T05:10:47.420Z,182.70
2022-10-17T05:13:17.158Z,442.98
2022-10-17T05:15:46.379Z,243.57
2022-10-17T05:18:15.630Z,230.27
2022-10-17T05:20:46.439Z,266.92
2022-10-17T05:23:17.138Z,183.90
2022-10-17T05:25:47.044Z,212.52
2022-10-17T05:28:16.232Z,237.32
2022-10-17T05:30:46.218Z,396.23
2022-10-17T05:33:15.461Z,310.40
2022-10-17T05:35:44.657Z,193.73
2022-10-17T05:38:13.910Z,304.63
2022-10-17T05:40:46.904Z,132.70
2022-10-17T05:43:16.626Z,281.17
2022-10-17T05:45:47.450Z,300.17
2022-10-17T05:48:21.962Z,212.00
2022-10-17T05:50:51.345Z,505.00
2022-10-17T05:53:22.513Z,571.90
2022-10-17T05:58:49.286Z,371.13
2022-10-17T06:01:32.572Z,380.25
2022-10-17T06:04:02.216Z,452.70
2022-10-17T06:06:31.613Z,422.67
2022-10-17T06:09:00.874Z,313.75
2022-10-17T06:11:36.129Z,380.25
2022-10-17T06:14:05.969Z,587.22
2022-10-17T06:16:35.397Z,553.60
2022-10-17T06:19:04.716Z,767.30
2022-10-17T06:21:36.763Z,477.13
2022-10-17T06:24:14.116Z,752.03
2022-10-17T06:26:47.728Z,540.85
2022-10-17T06:29:18.668Z,628.47
2022-10-17T06:34:21.227Z,689.55
2022-10-17T06:36:51.454Z,750.67
2022-10-17T06:39:21.795Z,695.35
2022-10-17T06:42:01.075Z,809.35
2022-10-17T06:44:55.909Z,799.67
2022-10-17T06:47:37.565Z,787.42
2022-10-17T06:53:15.366Z,563.38
2022-10-17T06:56:04.877Z,483.05
2022-10-17T06:58:51.505Z,554.38
2022-10-17T07:01:37.393Z,519.03
2022-10-17T07:04:07.695Z,420.50
2022-10-17T07:06:37.407Z,548.65
2022-10-17T07:09:12.850Z,466.80
2022-10-17T07:11:42.124Z,549.00
2022-10-17T07:14:12.877Z,369.45
2022-10-17T07:16:42.285Z,501.95
2022-10-17T07:19:20.126Z,488.73
2022-10-17T07:21:49.302Z,431.08
2022-10-17T07:24:18.938Z,487.15
2022-10-17T07:26:52.193Z,588.05
2022-10-17T07:29:23.437Z,801.85
2022-10-17T07:32:24.827Z,556.92
2022-10-17T07:34:54.511Z,503.10
2022-10-17T07:37:23.791Z,462.60
2022-10-17T07:39:58.812Z,676.22
2022-10-17T07:42:29.118Z,379.25
2022-10-17T07:45:00.014Z,370.88
2022-10-17T07:47:32.059Z,410.40
2022-10-17T07:50:02.235Z,380.75
2022-10-17T07:52:31.872Z,559.33
2022-10-17T07:55:01.525Z,431.42
2022-10-17T07:57:30.751Z,563.75
2022-10-17T08:00:01.311Z,561.47
2022-10-17T08:02:31.159Z,546.88
2022-10-17T08:05:00.466Z,546.25
2022-10-17T08:07:29.688Z,397.05
2022-10-17T08:09:59.187Z,542.92
2022-10-17T08:12:32.549Z,202.45
2022-10-17T08:15:03.924Z,545.83
2022-10-17T08:17:33.174Z,422.50
2022-10-17T08:20:02.560Z,312.90
2022-10-17T08:22:32.697Z,553.15
2022-10-17T08:25:02.138Z,396.70
2022-10-17T08:27:31.318Z,264.38
2022-10-17T08:30:00.820Z,510.60
2022-10-17T08:32:31.675Z,624.40
2022-10-17T08:35:01.302Z,489.50
2022-10-17T08:37:31.847Z,453.63
2022-10-17T08:40:01.314Z,585.65
2022-10-17T08:43:00.884Z,518.90
2022-10-17T08:45:36.975Z,393.58
2022-10-17T08:48:13.900Z,440.02
2022-10-17T08:50:48.549Z,261.52
2022-10-17T08:53:23.521Z,445.45
2022-10-17T08:55:55.102Z,320.65
2022-10-17T08:58:26.445Z,447.77
2022-10-17T09:01:12.721Z,347.35
2022-10-17T09:03:59.688Z,351.00
2022-10-17T09:06:34.483Z,546.17
2022-10-17T09:09:20.215Z,460.00
2022-10-17T09:12:17.958Z,445.45
2022-10-17T09:15:06.770Z,339.85
2022-10-17T09:17:49.878Z,408.30
2022-10-17T09:20:25.576Z,308.85
2022-10-17T09:23:03.766Z,113.90
2022-10-17T09:25:43.089Z,448.85
2022-10-17T09:28:20.263Z,493.83
2022-10-17T09:30:57.062Z,203.18
2022-10-17T09:33:42.580Z,517.17
2022-10-17T09:36:24.639Z,560.25
2022-10-17T09:38:56.488Z,270.92
2022-10-17T09:41:47.462Z,294.80
2022-10-17T09:44:24.329Z,420.05
2022-10-17T09:47:25.316Z,336.38
2022-10-17T09:49:54.619Z,298.35
2022-10-17T09:52:32.033Z,455.23
2022-10-17T09:55:06.200Z,357.92
2022-10-17T09:57:56.912Z,635.47
2022-10-17T10:00:29.442Z,527.58
2022-10-17T10:03:16.750Z,489.67
2022-10-17T10:06:02.694Z,317.10
2022-10-17T10:08:36.965Z,492.08
2022-10-17T10:11:13.450Z,487.42
2022-10-17T10:13:44.035Z,427.92
2022-10-17T10:16:21.778Z,365.17
2022-10-17T10:18:52.192Z,479.15
2022-10-17T10:21:23.776Z,250.10
2022-10-17T10:24:13.918Z,448.00
2022-10-17T10:26:48.162Z,513.20
2022-10-17T10:29:31.148Z,383.98
2022-10-17T10:32:11.481Z,238.38
2022-10-17T10:34:48.670Z,209.07
2022-10-17T10:37:23.022Z,208.77
2022-10-17T10:39:56.498Z,375.50
2022-10-17T10:42:30.318Z,232.98
2022-10-17T10:45:04.081Z,204.70
2022-10-17T10:47:34.146Z,239.35
2022-10-17T10:50:25.646Z,94.80
2022-10-17T10:53:18.556Z,424.73
2022-10-17T10:55:53.789Z,161.18
2022-10-17T10:58:38.916Z,318.45
2022-10-17T11:01:21.073Z,192.32
2022-10-17T11:04:20.913Z,267.20
2022-10-17T11:06:54.064Z,171.27
2022-10-17T11:09:41.540Z,168.32
2022-10-17T11:12:19.733Z,238.25
2022-10-17T11:14:56.292Z,171.90
2022-10-17T11:17:36.417Z,219.50
2022-10-17T11:20:16.577Z,304.02
2022-10-17T11:22:49.329Z,287.55
2022-10-17T11:25:35.015Z,183.38
2022-10-17T11:28:13.440Z,201.93
2022-10-17T11:30:52.358Z,283.13
2022-10-17T11:33:31.837Z,416.98
2022-10-17T11:36:06.904Z,296.90
2022-10-17T11:38:47.370Z,315.58
2022-10-17T11:41:25.508Z,319.83
2022-10-17T11:44:04.781Z,250.82
2022-10-17T11:46:37.582Z,445.70
2022-10-17T11:49:20.039Z,260.27
2022-10-17T11:52:02.890Z,268.88
2022-10-17T11:54:40.282Z,384.92
2022-10-17T11:57:41.210Z,251.90
2022-10-17T12:00:37.981Z,290.23
2022-10-17T12:03:31.036Z,369.27
2022-10-17T12:06:10.884Z,404.80
2022-10-17T12:08:46.294Z,184.88
2022-10-17T12:11:43.548Z,238.07
2022-10-17T12:14:42.103Z,279.42
2022-10-17T12:17:35.207Z,245.07
2022-10-17T12:20:30.604Z,275.33
2022-10-17T12:23:27.184Z,196.65
2022-10-17T12:26:01.654Z,342.70
2022-10-17T12:28:42.086Z,512.58
2022-10-17T12:31:29.741Z,269.45
2022-10-17T12:34:06.227Z,169.07
2022-10-17T12:36:39.953Z,252.48
2022-10-17T12:39:52.636Z,253.57
2022-10-17T12:42:52.278Z,267.92
2022-10-17T12:45:55.574Z,281.23
2022-10-17T12:49:05.164Z,245.95
2022-10-17T12:52:27.686Z,147.57
2022-10-17T12:55:13.958Z,347.63
2022-10-17T12:57:52.457Z,527.78
2022-10-17T13:00:29.949Z,178.68
2022-10-17T13:03:07.982Z,212.23
2022-10-17T13:05:42.977Z,430.73
2022-10-17T13:08:19.175Z,283.35
2022-10-17T13:10:52.613Z,424.92
2022-10-17T13:13:26.807Z,354.48
2022-10-17T13:15:56.965Z,245.18
2022-10-17T13:18:29.478Z,145.65
2022-10-17T13:23:38.715Z,262.95
2022-10-17T13:26:16.691Z,209.73
2022-10-17T13:28:46.211Z,232.90
2022-10-17T13:31:32.171Z,374.25
2022-10-17T13:34:06.637Z,343.80
2022-10-17T13:36:37.934Z,205.00
2022-10-17T13:39:17.019Z,311.05
2022-10-17T13:41:47.245Z,108.72
2022-10-17T13:44:20.205Z,182.48
2022-10-17T13:46:50.217Z,222.50
2022-10-17T13:49:26.183Z,207.65
2022-10-17T13:52:01.457Z,232.52
2022-10-17T13:54:40.163Z,204.40
2022-10-17T13:57:21.801Z,209.00
2022-10-17T13:59:55.112Z,179.98
2022-10-17T14:02:27.740Z,279.67
2022-10-17T14:08:11.398Z,151.50
2022-10-17T14:10:44.522Z,276.60
2022-10-17T14:13:23.979Z,234.27
2022-10-17T14:15:55.352Z,155.18
2022-10-17T14:18:34.895Z,141.57
2022-10-17T14:21:34.374Z,166.35
2022-10-17T14:24:27.569Z,289.92
2022-10-17T14:26:59.852Z,195.10
2022-10-17T14:29:31.233Z,319.02
2022-10-17T14:32:05.558Z,196.30
2022-10-17T14:34:38.552Z,195.25
2022-10-17T14:37:12.730Z,193.45
2022-10-17T14:39:43.359Z,74.05
2022-10-17T14:42:21.583Z,345.95
2022-10-17T14:44:52.223Z,118.68
2022-10-17T14:47:43.220Z,155.20
2022-10-17T14:50:25.920Z,271.23
2022-10-17T14:53:04.953Z,152.88
2022-10-17T14:55:37.542Z,184.80
2022-10-17T15:00:46.894Z,107.88
2022-10-17T15:03:16.120Z,168.00
2022-10-17T15:05:45.362Z,126.95
2022-10-17T15:08:17.347Z,143.07
2022-10-17T15:10:49.815Z,98.35
2022-10-17T15:13:27.985Z,120.32
2022-10-17T15:15:58.820Z,136.52
2022-10-17T15:18:28.111Z,123.70
2022-10-17T15:21:05.062Z,163.52
2022-10-17T15:23:42.533Z,162.60
2022-10-17T15:26:20.168Z,102.88
2022-10-17T15:28:50.704Z,158.68
2022-10-17T15:31:22.676Z,99.50
2022-10-17T15:33:52.455Z,150.57
2022-10-17T15:36:28.228Z,110.72
2022-10-17T15:39:01.934Z,97.10
2022-10-17T15:41:34.778Z,113.78
2022-10-17T15:44:04.068Z,234.07
2022-10-17T15:46:37.342Z,160.70
2022-10-17T15:49:09.679Z,259.63
2022-10-17T15:51:39.487Z,220.18
2022-10-17T15:54:08.843Z,112.60
2022-10-17T15:56:42.029Z,107.25
2022-10-17T15:59:16.274Z,151.23
2022-10-17T16:01:45.877Z,145.65
2022-10-17T16:04:16.030Z,139.57
2022-10-17T16:06:45.255Z,92.78
2022-10-17T16:09:14.459Z,127.60
2022-10-17T16:11:46.644Z,115.18
2022-10-17T16:14:18.291Z,92.47
2022-10-17T16:16:47.911Z,72.75
2022-10-17T16:19:17.256Z,108.00
2022-10-17T16:21:46.699Z,62.47
2022-10-17T16:24:15.856Z,67.03
2022-10-17T16:26:46.577Z,99.85
2022-10-17T16:29:15.845Z,68.38
2022-10-17T16:31:47.095Z,65.07
2022-10-17T16:34:17.032Z,62.90
2022-10-17T16:36:46.351Z,85.32
2022-10-17T16:39:15.851Z,60.55
2022-10-17T16:41:46.493Z,51.13
2022-10-17T16:44:17.541Z,46.13
2022-10-17T16:46:47.421Z,80.25
2022-10-17T16:49:18.319Z,51.80
2022-10-17T16:51:47.686Z,101.47
2022-10-17T16:54:17.049Z,48.92
2022-10-17T16:56:47.790Z,40.72
2022-10-17T16:59:17.126Z,36.92
2022-10-17T17:01:46.390Z,31.23
2022-10-17T17:04:15.704Z,45.70
2022-10-17T17:09:18.994Z,54.80
2022-10-17T17:11:49.799Z,46.42
2022-10-17T17:14:19.125Z,41.35
2022-10-17T17:16:48.299Z,44.13
2022-10-17T17:19:18.638Z,35.95
2022-10-17T17:21:50.958Z,48.28
2022-10-17T17:24:22.236Z,43.30
2022-10-17T17:26:56.007Z,40.05
2022-10-17T17:29:27.615Z,35.28
2022-10-17T17:31:57.037Z,36.08
2022-10-17T17:34:26.151Z,31.95
2022-10-17T17:36:55.328Z,38.22
2022-10-17T17:39:24.802Z,48.92
2022-10-17T17:41:55.679Z,43.08
2022-10-17T17:44:25.085Z,42.45
2022-10-17T17:46:54.262Z,37.10
2022-10-17T17:49:23.856Z,48.55
2022-10-17T17:51:53.070Z,44.20
2022-10-17T17:54:22.276Z,38.85
2022-10-17T17:56:51.404Z,44.80
2022-10-17T17:59:21.977Z,50.72
2022-10-17T18:01:51.187Z,42.25
2022-10-17T18:04:20.341Z,59.25
2022-10-17T18:06:49.578Z,38.85
2022-10-17T18:09:20.455Z,45.75
2022-10-17T18:11:49.612Z,39.42
2022-10-17T18:14:19.330Z,28.98
2022-10-17T18:16:49.886Z,28.95
2022-10-17T18:19:19.390Z,29.55
2022-10-17T18:21:49.159Z,27.85
2022-10-17T18:24:18.372Z,32.92
2022-10-17T18:26:47.542Z,39.20
2022-10-17T18:29:16.872Z,50.17
2022-10-17T18:31:46.090Z,61.13
2022-10-17T18:34:16.832Z,58.47
2022-10-17T18:36:46.009Z,39.42
2022-10-17T18:39:15.229Z,42.00
2022-10-17T18:41:44.380Z,34.80
2022-10-17T18:44:13.769Z,44.13
2022-10-17T18:46:43.121Z,41.08
2022-10-17T18:49:20.074Z,85.03
2022-10-17T18:51:49.275Z,41.72
2022-10-17T18:54:21.813Z,53.80
2022-10-17T18:56:53.724Z,53.63
2022-10-17T18:59:23.570Z,73.28
2022-10-17T19:01:52.748Z,46.40
2022-10-17T19:04:23.601Z,51.70
2022-10-17T19:06:52.748Z,38.35
2022-10-17T19:09:21.907Z,54.65
2022-10-17T19:11:51.235Z,56.28
2022-10-17T19:14:20.379Z,76.00
2022-10-17T19:16:51.971Z,43.13
2022-10-17T19:19:25.526Z,63.35
2022-10-17T19:21:55.198Z,63.72
2022-10-17T19:24:27.086Z,47.33
2022-10-17T19:26:59.417Z,117.82
2022-10-17T19:29:32.090Z,69.55
2022-10-17T19:34:31.958Z,181.25
2022-10-17T19:37:01.344Z,89.00
2022-10-17T19:39:30.736Z,94.32
2022-10-17T19:42:05.867Z,86.63
2022-10-17T19:44:36.278Z,78.93
2022-10-17T19:47:05.540Z,99.45
2022-10-17T19:49:36.097Z,83.13
2022-10-17T19:52:05.650Z,80.22
2022-10-17T19:54:34.880Z,86.85
2022-10-17T19:57:08.030Z,86.13
2022-10-17T19:59:39.775Z,108.72
2022-10-17T20:02:09.100Z,92.65
2022-10-17T20:04:49.625Z,83.95
2022-10-17T20:07:29.054Z,87.38
2022-10-17T20:09:58.265Z,77.28
2022-10-17T20:12:27.821Z,73.63
2022-10-17T20:14:57.058Z,82.82
2022-10-17T20:17:27.178Z,117.30
2022-10-17T20:19:57.756Z,74.93
2022-10-17T20:22:27.183Z,80.47
2022-10-17T20:24:56.525Z,83.18
2022-10-17T20:27:27.800Z,74.63
2022-10-17T20:30:01.739Z,67.20
2022-10-17T20:32:39.559Z,67.53
2022-10-17T20:35:11.052Z,67.88
2022-10-17T20:37:42.685Z,70.43
2022-10-17T20:43:02.514Z,63.08
2022-10-17T20:45:45.138Z,65.95
2022-10-17T20:48:20.596Z,58.90
2022-10-17T20:50:51.419Z,56.25
2022-10-17T20:53:36.679Z,53.38
2022-10-17T20:56:09.270Z,58.10
2022-10-17T20:58:38.661Z,60.17
2022-10-17T21:01:09.776Z,53.70
2022-10-17T21:03:43.887Z,47.53
2022-10-17T21:06:18.026Z,47.63
2022-10-17T21:08:48.494Z,59.58
2022-10-17T21:11:19.240Z,47.95
2022-10-17T21:13:54.588Z,55.80
2022-10-17T21:16:24.169Z,46.55
2022-10-17T21:18:53.369Z,49.92
2022-10-17T21:21:26.960Z,52.03
2022-10-17T21:24:00.450Z,61.35
2022-10-17T21:26:30.530Z,64.25
2022-10-17T21:29:03.065Z,65.43
2022-10-17T21:31:33.480Z,67.38
2022-10-17T21:34:07.310Z,72.00
2022-10-17T21:36:37.924Z,77.93
2022-10-17T21:41:42.603Z,62.78
2022-10-17T21:44:15.677Z,73.72
2022-10-17T21:46:46.447Z,63.08
2022-10-17T21:49:17.983Z,64.93
2022-10-17T21:51:49.221Z,70.40
2022-10-17T21:54:19.984Z,68.22
2022-10-17T21:56:49.143Z,54.40
2022-10-17T21:59:18.643Z,38.53
2022-10-17T22:01:48.337Z,41.72
2022-10-17T22:04:20.206Z,31.27
2022-10-17T22:06:52.531Z,32.47
2022-10-17T22:09:25.008Z,33.60
2022-10-17T22:11:56.453Z,34.88
2022-10-17T22:14:27.972Z,36.95
2022-10-17T22:16:57.281Z,41.75
2022-10-17T22:19:28.328Z,36.38
2022-10-17T22:21:58.934Z,43.90
2022-10-17T22:24:28.070Z,42.63
2022-10-17T22:26:57.247Z,43.97
2022-10-17T22:29:26.343Z,51.47
2022-10-17T22:31:55.485Z,56.72
2022-10-17T22:34:24.662Z,65.93
2022-10-17T22:36:53.771Z,63.70
2022-10-17T22:39:24.542Z,50.17
2022-10-17T22:41:53.885Z,61.08
2022-10-17T22:44:23.203Z,69.85
2022-10-17T22:46:52.305Z,70.80
2022-10-17T22:49:21.413Z,57.28
2022-10-17T22:51:50.573Z,56.03
2022-10-17T22:54:19.671Z,66.47
2022-10-17T22:56:50.211Z,40.25
2022-10-17T22:59:19.357Z,40.63
2022-10-17T23:01:48.531Z,46.08
2022-10-17T23:04:17.707Z,35.22
2022-10-17T23:06:46.998Z,42.78
2022-10-17T23:09:16.226Z,57.25
2022-10-17T23:11:45.414Z,37.28
2022-10-17T23:14:16.047Z,41.03
2022-10-17T23:16:45.136Z,35.55
2022-10-17T23:19:14.209Z,35.97
2022-10-17T23:21:43.327Z,38.03
2022-10-17T23:24:12.428Z,35.55
2022-10-17T23:26:41.829Z,32.53
2022-10-17T23:29:11.391Z,34.50
2022-10-17T23:31:42.023Z,32.80
2022-10-17T23:34:11.363Z,35.15
2022-10-17T23:36:40.522Z,34.28
2022-10-17T23:39:10.429Z,34.58
2022-10-17T23:41:40.337Z,32.15
2022-10-17T23:44:11.187Z,30.02
2022-10-17T23:46:41.870Z,35.80
2022-10-17T23:49:11.017Z,31.98
2022-10-17T23:51:40.109Z,30.67
2022-10-17T23:54:09.324Z,32.67
2022-10-17T23:56:38.479Z,33.35
2022-10-17T23:59:07.610Z,31.38
